Time;durP1;ratioP1;P1;durP2;ratioP2;P2;SDS_P1;SDS_P2;PMS_P1;PMS_P2;Temp;Humidity;BMP_temperature;BMP_pressure;BME280_temperature;BME280_humidity;BME280_pressure;Samples;Min_cycle;Max_cycle;Signal;HPM_P1;HPM_P2
2022/01/28 03:57:04;;;;;;;14.98;2.65;;;27.30;64.40;;;;;;5034664;28;20060;-66
2022/01/28 03:59:31;;;;;;;10.88;2.20;;;27.40;64.10;;;;;;5014351;28;20049;-66
2022/01/28 04:01:58;;;;;;;15.20;2.50;;;27.40;64.30;;;;;;5034362;28;20052;-66
2022/01/28 04:12:38;;;;;;;18.00;2.67;;;27.30;64.20;;;;;;5005852;28;20546;-66
2022/01/28 04:17:46;;;;;;;9.40;1.90;;;27.30;64.80;;;;;;5027744;28;20037;-67
2022/01/28 04:20:13;;;;;;;6.38;1.60;;;27.30;65.00;;;;;;5026720;28;20033;-65
2022/01/28 04:22:40;;;;;;;7.18;2.03;;;27.30;65.90;;;;;;5027006;28;20496;-66
2022/01/28 04:25:08;;;;;;;6.43;2.15;;;27.30;64.30;;;;;;5026997;28;20064;-66
2022/01/28 04:27:35;;;;;;;11.15;2.10;;;27.20;65.70;;;;;;5014244;28;20034;-66
2022/01/28 04:30:02;;;;;;;22.70;3.55;;;27.20;65.30;;;;;;5007062;28;20104;-65
2022/01/28 04:32:31;;;;;;;14.15;2.90;;;27.20;65.30;;;;;;5028685;28;20029;-66
2022/01/28 04:34:59;;;;;;;8.93;1.67;;;27.20;65.30;;;;;;5017471;28;20555;-66
2022/01/28 04:37:35;;;;;;;8.75;1.90;;;27.20;64.60;;;;;;5027239;28;20124;-65
2022/01/28 04:40:18;;;;;;;11.20;1.70;;;27.20;64.50;;;;;;5016810;28;20041;-66
2022/01/28 04:53:23;;;;;;;20.25;1.88;;;27.20;66.60;;;;;;5019017;28;20044;-66
2022/01/28 05:35:05;;;;;;;18.13;2.20;;;27.20;65.90;;;;;;5028271;28;20781;-67
2022/01/28 05:37:32;;;;;;;7.22;2.17;;;27.20;65.50;;;;;;5014975;28;20129;-65
2022/01/28 05:39:59;;;;;;;11.93;2.25;;;27.20;65.10;;;;;;5016822;28;20057;-67
2022/01/28 05:42:26;;;;;;;6.03;2.10;;;27.20;64.70;;;;;;4998669;28;20163;-66
2022/01/28 05:44:53;;;;;;;7.15;1.70;;;27.20;64.90;;;;;;5029930;28;20030;-67
2022/01/28 05:47:23;;;;;;;15.93;2.35;;;27.10;64.60;;;;;;5019292;28;20041;-66
2022/01/28 05:49:51;;;;;;;7.10;2.05;;;27.20;65.50;;;;;;5020964;28;20026;-66
2022/01/28 05:52:18;;;;;;;13.30;1.90;;;27.10;65.70;;;;;;5030382;28;20439;-66
2022/01/28 05:54:45;;;;;;;8.57;1.80;;;27.10;65.10;;;;;;5018702;28;20046;-66
2022/01/28 05:57:12;;;;;;;21.33;2.88;;;27.10;65.00;;;;;;5029432;28;20064;-66
2022/01/28 05:59:39;;;;;;;9.95;1.65;;;27.10;65.50;;;;;;5019380;28;20068;-67
2022/01/28 06:02:07;;;;;;;7.57;1.40;;;27.00;65.10;;;;;;5023293;28;20030;-66
2022/01/28 06:04:36;;;;;;;21.23;2.65;;;27.00;64.40;;;;;;5021428;28;20033;-67
2022/01/28 06:07:03;;;;;;;6.38;1.63;;;27.00;64.80;;;;;;5018355;28;20514;-66
2022/01/28 06:09:30;;;;;;;14.88;3.10;;;27.00;64.30;;;;;;5013225;28;20042;-67
2022/01/28 06:11:57;;;;;;;8.52;2.80;;;27.00;65.70;;;;;;5021486;28;20030;-67
2022/01/28 06:14:25;;;;;;;4.45;1.90;;;27.00;65.40;;;;;;5003840;28;20034;-66
2022/01/28 06:16:52;;;;;;;3.95;1.35;;;27.00;64.30;;;;;;5028853;28;20034;-67
2022/01/28 06:19:19;;;;;;;8.80;1.45;;;27.00;64.40;;;;;;5016762;28;20026;-66
2022/01/28 06:21:46;;;;;;;7.80;1.80;;;27.00;64.40;;;;;;5026572;28;20030;-66
2022/01/28 06:24:13;;;;;;;6.40;1.90;;;26.90;64.80;;;;;;5023592;28;20033;-66
2022/01/28 06:26:41;;;;;;;6.18;1.60;;;27.00;65.10;;;;;;5019991;28;20057;-66
2022/01/28 06:29:10;;;;;;;8.25;1.77;;;27.00;65.60;;;;;;5016332;28;20033;-66
2022/01/28 06:31:37;;;;;;;5.73;1.57;;;27.00;65.80;;;;;;5027494;28;20034;-66
2022/01/28 06:34:04;;;;;;;6.22;1.50;;;27.00;65.60;;;;;;5022407;28;20124;-65
2022/01/28 06:36:31;;;;;;;7.57;1.80;;;26.90;65.70;;;;;;5012985;28;20034;-66
2022/01/28 06:38:59;;;;;;;13.65;2.65;;;26.90;66.20;;;;;;5031137;28;20434;-66
2022/01/28 06:41:26;;;;;;;11.60;2.70;;;26.80;66.80;;;;;;4999227;28;20486;-65
2022/01/28 06:43:53;;;;;;;7.20;1.50;;;26.80;67.00;;;;;;5032882;28;20087;-66
2022/01/28 06:46:20;;;;;;;6.25;1.60;;;26.80;65.70;;;;;;5022507;28;20034;-66
2022/01/28 06:48:47;;;;;;;7.28;1.80;;;26.80;65.40;;;;;;5030446;28;20033;-65
2022/01/28 06:51:14;;;;;;;10.07;3.13;;;26.80;66.20;;;;;;5025309;28;20041;-66
2022/01/28 06:53:42;;;;;;;7.57;1.67;;;26.80;66.00;;;;;;5027480;28;20084;-66
2022/01/28 06:56:09;;;;;;;6.15;1.95;;;26.80;66.20;;;;;;5027247;28;20045;-66
2022/01/28 06:58:36;;;;;;;5.25;1.70;;;26.80;66.70;;;;;;5020690;28;20128;-66
2022/01/28 07:01:03;;;;;;;8.32;2.03;;;26.70;67.30;;;;;;5026574;28;20418;-66
2022/01/28 07:03:30;;;;;;;9.07;2.00;;;26.70;68.00;;;;;;5026622;28;20117;-66
2022/01/28 07:05:57;;;;;;;8.50;1.60;;;26.70;67.70;;;;;;5025613;28;20030;-67
2022/01/28 07:08:27;;;;;;;7.63;2.05;;;26.60;68.00;;;;;;5023613;28;20061;-67
2022/01/28 07:10:54;;;;;;;7.78;1.60;;;26.50;68.40;;;;;;5016972;28;20455;-67
2022/01/28 07:13:21;;;;;;;6.05;1.70;;;26.50;68.40;;;;;;5020839;28;20025;-67
2022/01/28 07:15:51;;;;;;;4.65;1.45;;;26.50;67.50;;;;;;5023569;28;20057;-65
2022/01/28 07:18:18;;;;;;;;;;;26.50;66.90;;;;;;5025292;28;20076;-66
2022/01/28 07:20:45;;;;;;;10.48;2.53;;;26.40;67.30;;;;;;5029465;28;19913;-66
2022/01/28 07:23:12;;;;;;;17.10;1.98;;;26.40;67.50;;;;;;5030395;28;20094;-66
2022/01/28 07:25:39;;;;;;;9.35;2.60;;;26.40;67.10;;;;;;5025912;28;20088;-65
2022/01/28 07:28:06;;;;;;;11.85;3.00;;;26.40;67.40;;;;;;4992115;28;20038;-66
2022/01/28 07:30:34;;;;;;;20.85;4.75;;;26.40;67.90;;;;;;5000008;28;23724;-66
2022/01/28 07:33:05;;;;;;;12.15;3.10;;;26.40;67.90;;;;;;5011017;28;20044;-65
2022/01/28 07:35:32;;;;;;;13.48;2.33;;;26.40;67.70;;;;;;5022003;28;20459;-65
2022/01/28 07:37:59;;;;;;;7.63;2.00;;;26.30;67.20;;;;;;5026906;28;20439;-65
2022/01/28 07:40:26;;;;;;;7.43;2.20;;;26.30;67.60;;;;;;5030546;28;20045;-65
2022/01/28 07:42:56;;;;;;;8.18;2.38;;;26.30;68.20;;;;;;5027797;28;20357;-64
2022/01/28 07:45:24;;;;;;;11.82;2.03;;;26.30;68.60;;;;;;5021133;28;20048;-66
2022/01/28 07:47:52;;;;;;;8.70;1.95;;;26.30;68.00;;;;;;5028514;28;20543;-65
2022/01/28 07:50:19;;;;;;;9.35;1.95;;;26.20;68.80;;;;;;5010022;28;20038;-66
2022/01/28 07:52:46;;;;;;;8.02;1.75;;;26.30;69.40;;;;;;5027385;28;20037;-67
2022/01/28 07:55:14;;;;;;;8.90;1.92;;;26.30;69.10;;;;;;5023971;28;20046;-67
2022/01/28 07:57:42;;;;;;;8.02;1.75;;;26.20;68.90;;;;;;5028893;28;20075;-68
